sensor_id;sensor_type;location;lat;lon;timestamp;P1;durP1;ratioP1;P2;durP2;ratioP2
5965;SDS011;3009;43.224;27.976;2023-11-21T00:00:09;5.63;;;4.30;;
5965;SDS011;3009;43.224;27.976;2023-11-21T00:02:40;8.20;;;4.73;;
5965;SDS011;3009;43.224;27.976;2023-11-21T00:05:09;4.50;;;3.90;;
5965;SDS011;3009;43.224;27.976;2023-11-21T00:07:39;7.17;;;3.97;;
5965;SDS011;3009;43.224;27.976;2023-11-21T00:10:09;5.00;;;4.47;;
5965;SDS011;3009;43.224;27.976;2023-11-21T00:12:42;5.93;;;3.60;;
5965;SDS011;3009;43.224;27.976;2023-11-21T00:15:12;4.33;;;3.93;;
5965;SDS011;3009;43.224;27.976;2023-11-21T00:17:42;4.23;;;3.93;;
5965;SDS011;3009;43.224;27.976;2023-11-21T00:20:10;3.97;;;3.70;;
5965;SDS011;3009;43.224;27.976;2023-11-21T00:22:40;4.63;;;4.30;;
5965;SDS011;3009;43.224;27.976;2023-11-21T00:25:09;4.70;;;4.30;;
5965;SDS011;3009;43.224;27.976;2023-11-21T00:27:38;4.73;;;4.40;;
5965;SDS011;3009;43.224;27.976;2023-11-21T00:30:09;5.13;;;4.10;;
5965;SDS011;3009;43.224;27.976;2023-11-21T00:32:38;4.37;;;4.07;;
5965;SDS011;3009;43.224;27.976;2023-11-21T00:35:07;4.60;;;4.20;;
5965;SDS011;3009;43.224;27.976;2023-11-21T00:37:36;4.13;;;3.73;;
5965;SDS011;3009;43.224;27.976;2023-11-21T00:40:06;4.40;;;4.10;;
5965;SDS011;3009;43.224;27.976;2023-11-21T00:42:36;4.80;;;4.40;;
5965;SDS011;3009;43.224;27.976;2023-11-21T00:45:05;7.20;;;5.20;;
5965;SDS011;3009;43.224;27.976;2023-11-21T00:47:37;5.57;;;4.00;;
5965;SDS011;3009;43.224;27.976;2023-11-21T00:50:06;4.73;;;4.30;;
5965;SDS011;3009;43.224;27.976;2023-11-21T00:52:36;4.83;;;4.17;;
5965;SDS011;3009;43.224;27.976;2023-11-21T00:55:05;6.50;;;4.50;;
5965;SDS011;3009;43.224;27.976;2023-11-21T00:57:35;4.47;;;4.07;;
5965;SDS011;3009;43.224;27.976;2023-11-21T01:00:05;4.10;;;3.80;;
5965;SDS011;3009;43.224;27.976;2023-11-21T01:02:37;5.43;;;4.87;;
5965;SDS011;3009;43.224;27.976;2023-11-21T01:05:06;3.93;;;3.73;;
5965;SDS011;3009;43.224;27.976;2023-11-21T01:07:36;3.50;;;3.30;;
5965;SDS011;3009;43.224;27.976;2023-11-21T01:10:05;4.90;;;4.50;;
5965;SDS011;3009;43.224;27.976;2023-11-21T01:12:34;4.70;;;4.40;;
5965;SDS011;3009;43.224;27.976;2023-11-21T01:15:04;5.30;;;4.53;;
5965;SDS011;3009;43.224;27.976;2023-11-21T01:17:36;4.73;;;4.30;;
5965;SDS011;3009;43.224;27.976;2023-11-21T01:20:05;5.17;;;4.77;;
5965;SDS011;3009;43.224;27.976;2023-11-21T01:22:40;4.80;;;4.40;;
5965;SDS011;3009;43.224;27.976;2023-11-21T01:25:10;4.73;;;4.33;;
5965;SDS011;3009;43.224;27.976;2023-11-21T01:27:41;5.00;;;4.60;;
5965;SDS011;3009;43.224;27.976;2023-11-21T01:30:09;4.90;;;4.50;;
5965;SDS011;3009;43.224;27.976;2023-11-21T01:32:40;5.20;;;4.13;;
5965;SDS011;3009;43.224;27.976;2023-11-21T01:35:08;4.57;;;4.20;;
5965;SDS011;3009;43.224;27.976;2023-11-21T01:37:37;4.83;;;4.43;;
5965;SDS011;3009;43.224;27.976;2023-11-21T01:40:06;4.90;;;4.50;;
5965;SDS011;3009;43.224;27.976;2023-11-21T01:42:40;5.53;;;4.90;;
5965;SDS011;3009;43.224;27.976;2023-11-21T01:45:10;5.27;;;4.77;;
5965;SDS011;3009;43.224;27.976;2023-11-21T01:47:41;4.17;;;3.83;;
5965;SDS011;3009;43.224;27.976;2023-11-21T01:50:13;4.63;;;4.30;;
5965;SDS011;3009;43.224;27.976;2023-11-21T01:52:46;5.03;;;4.63;;
5965;SDS011;3009;43.224;27.976;2023-11-21T01:55:16;4.80;;;4.33;;
5965;SDS011;3009;43.224;27.976;2023-11-21T01:57:54;4.87;;;4.57;;
5965;SDS011;3009;43.224;27.976;2023-11-21T02:00:23;4.60;;;4.20;;
5965;SDS011;3009;43.224;27.976;2023-11-21T02:02:54;4.63;;;4.20;;
5965;SDS011;3009;43.224;27.976;2023-11-21T02:05:23;4.83;;;4.43;;
5965;SDS011;3009;43.224;27.976;2023-11-21T02:07:52;4.90;;;4.50;;
5965;SDS011;3009;43.224;27.976;2023-11-21T02:10:20;5.00;;;4.53;;
5965;SDS011;3009;43.224;27.976;2023-11-21T02:12:51;4.07;;;3.77;;
5965;SDS011;3009;43.224;27.976;2023-11-21T02:15:19;5.50;;;4.40;;
5965;SDS011;3009;43.224;27.976;2023-11-21T02:17:48;4.10;;;3.83;;
5965;SDS011;3009;43.224;27.976;2023-11-21T02:20:20;4.77;;;4.30;;
5965;SDS011;3009;43.224;27.976;2023-11-21T02:22:53;5.60;;;4.20;;
5965;SDS011;3009;43.224;27.976;2023-11-21T02:25:25;4.23;;;3.83;;
5965;SDS011;3009;43.224;27.976;2023-11-21T02:27:54;8.33;;;4.43;;
5965;SDS011;3009;43.224;27.976;2023-11-21T02:30:23;5.17;;;4.17;;
5965;SDS011;3009;43.224;27.976;2023-11-21T02:32:54;6.63;;;4.03;;
5965;SDS011;3009;43.224;27.976;2023-11-21T02:35:24;5.13;;;3.80;;
5965;SDS011;3009;43.224;27.976;2023-11-21T02:37:54;7.70;;;4.70;;
5965;SDS011;3009;43.224;27.976;2023-11-21T02:40:22;5.07;;;4.57;;
5965;SDS011;3009;43.224;27.976;2023-11-21T02:42:53;5.30;;;4.37;;
5965;SDS011;3009;43.224;27.976;2023-11-21T02:45:26;8.87;;;5.70;;
5965;SDS011;3009;43.224;27.976;2023-11-21T02:47:54;6.97;;;4.30;;
5965;SDS011;3009;43.224;27.976;2023-11-21T02:50:24;10.67;;;5.47;;
5965;SDS011;3009;43.224;27.976;2023-11-21T02:52:55;11.37;;;5.90;;
5965;SDS011;3009;43.224;27.976;2023-11-21T02:55:27;10.23;;;5.70;;
5965;SDS011;3009;43.224;27.976;2023-11-21T02:57:56;7.53;;;4.87;;
5965;SDS011;3009;43.224;27.976;2023-11-21T03:00:24;9.70;;;5.80;;
5965;SDS011;3009;43.224;27.976;2023-11-21T03:02:53;7.83;;;5.43;;
5965;SDS011;3009;43.224;27.976;2023-11-21T03:05:23;8.40;;;5.67;;
5965;SDS011;3009;43.224;27.976;2023-11-21T03:07:52;6.97;;;5.10;;
5965;SDS011;3009;43.224;27.976;2023-11-21T03:10:22;6.60;;;5.20;;
5965;SDS011;3009;43.224;27.976;2023-11-21T03:12:50;7.30;;;5.20;;
5965;SDS011;3009;43.224;27.976;2023-11-21T03:15:19;5.87;;;5.27;;
5965;SDS011;3009;43.224;27.976;2023-11-21T03:17:47;10.23;;;5.57;;
5965;SDS011;3009;43.224;27.976;2023-11-21T03:20:17;5.17;;;4.77;;
5965;SDS011;3009;43.224;27.976;2023-11-21T03:22:46;5.33;;;4.50;;
5965;SDS011;3009;43.224;27.976;2023-11-21T03:25:14;6.03;;;4.60;;
5965;SDS011;3009;43.224;27.976;2023-11-21T03:27:45;5.50;;;4.47;;
5965;SDS011;3009;43.224;27.976;2023-11-21T03:30:14;6.30;;;5.10;;
5965;SDS011;3009;43.224;27.976;2023-11-21T03:32:43;4.83;;;4.43;;
5965;SDS011;3009;43.224;27.976;2023-11-21T03:35:11;7.37;;;4.87;;
5965;SDS011;3009;43.224;27.976;2023-11-21T03:37:40;5.07;;;4.50;;
5965;SDS011;3009;43.224;27.976;2023-11-21T03:40:09;4.97;;;4.57;;
5965;SDS011;3009;43.224;27.976;2023-11-21T03:42:39;8.50;;;4.00;;
5965;SDS011;3009;43.224;27.976;2023-11-21T03:45:10;4.40;;;4.00;;
5965;SDS011;3009;43.224;27.976;2023-11-21T03:47:39;5.10;;;4.70;;
5965;SDS011;3009;43.224;27.976;2023-11-21T03:50:08;5.10;;;4.60;;
5965;SDS011;3009;43.224;27.976;2023-11-21T03:52:37;4.43;;;4.10;;
5965;SDS011;3009;43.224;27.976;2023-11-21T03:55:06;4.53;;;4.23;;
5965;SDS011;3009;43.224;27.976;2023-11-21T03:57:35;4.03;;;3.80;;
5965;SDS011;3009;43.224;27.976;2023-11-21T04:00:03;7.97;;;4.60;;
5965;SDS011;3009;43.224;27.976;2023-11-21T04:02:36;4.40;;;4.10;;
5965;SDS011;3009;43.224;27.976;2023-11-21T04:05:06;4.10;;;3.80;;
5965;SDS011;3009;43.224;27.976;2023-11-21T04:07:36;3.70;;;3.50;;
5965;SDS011;3009;43.224;27.976;2023-11-21T04:10:05;3.70;;;3.50;;
5965;SDS011;3009;43.224;27.976;2023-11-21T04:12:35;5.23;;;3.70;;
5965;SDS011;3009;43.224;27.976;2023-11-21T04:15:04;4.20;;;3.90;;
5965;SDS011;3009;43.224;27.976;2023-11-21T04:17:37;3.80;;;3.50;;
5965;SDS011;3009;43.224;27.976;2023-11-21T04:20:06;5.13;;;4.50;;
5965;SDS011;3009;43.224;27.976;2023-11-21T04:22:36;5.07;;;3.90;;
5965;SDS011;3009;43.224;27.976;2023-11-21T04:25:08;4.60;;;3.97;;
5965;SDS011;3009;43.224;27.976;2023-11-21T04:27:38;5.30;;;4.17;;
5965;SDS011;3009;43.224;27.976;2023-11-21T04:30:07;8.00;;;4.37;;
5965;SDS011;3009;43.224;27.976;2023-11-21T04:32:39;9.40;;;4.50;;
5965;SDS011;3009;43.224;27.976;2023-11-21T04:35:08;5.17;;;4.30;;
5965;SDS011;3009;43.224;27.976;2023-11-21T04:37:37;5.10;;;4.10;;
5965;SDS011;3009;43.224;27.976;2023-11-21T04:40:07;4.40;;;3.40;;
5965;SDS011;3009;43.224;27.976;2023-11-21T04:42:36;3.77;;;3.40;;
5965;SDS011;3009;43.224;27.976;2023-11-21T04:45:05;4.80;;;3.70;;
5965;SDS011;3009;43.224;27.976;2023-11-21T04:47:40;4.80;;;3.77;;
5965;SDS011;3009;43.224;27.976;2023-11-21T04:50:10;6.40;;;4.60;;
5965;SDS011;3009;43.224;27.976;2023-11-21T04:52:39;3.90;;;3.60;;
5965;SDS011;3009;43.224;27.976;2023-11-21T04:55:08;4.33;;;3.20;;
5965;SDS011;3009;43.224;27.976;2023-11-21T04:57:37;4.00;;;3.43;;
5965;SDS011;3009;43.224;27.976;2023-11-21T05:00:09;3.87;;;2.87;;
5965;SDS011;3009;43.224;27.976;2023-11-21T05:02:38;4.23;;;3.87;;
5965;SDS011;3009;43.224;27.976;2023-11-21T05:05:09;4.27;;;3.57;;
5965;SDS011;3009;43.224;27.976;2023-11-21T05:07:38;4.73;;;3.73;;
5965;SDS011;3009;43.224;27.976;2023-11-21T05:10:08;9.07;;;3.90;;
5965;SDS011;3009;43.224;27.976;2023-11-21T05:12:39;5.97;;;3.87;;
5965;SDS011;3009;43.224;27.976;2023-11-21T05:15:09;4.27;;;3.83;;
5965;SDS011;3009;43.224;27.976;2023-11-21T05:17:42;3.50;;;3.30;;
5965;SDS011;3009;43.224;27.976;2023-11-21T05:20:13;5.17;;;2.80;;
5965;SDS011;3009;43.224;27.976;2023-11-21T05:22:45;3.93;;;3.17;;
5965;SDS011;3009;43.224;27.976;2023-11-21T05:25:14;3.70;;;3.50;;
5965;SDS011;3009;43.224;27.976;2023-11-21T05:27:43;4.20;;;3.80;;
5965;SDS011;3009;43.224;27.976;2023-11-21T05:30:12;3.70;;;3.50;;
5965;SDS011;3009;43.224;27.976;2023-11-21T05:32:42;3.47;;;3.17;;
5965;SDS011;3009;43.224;27.976;2023-11-21T05:35:10;3.60;;;3.10;;
5965;SDS011;3009;43.224;27.976;2023-11-21T05:37:44;5.73;;;3.17;;
5965;SDS011;3009;43.224;27.976;2023-11-21T05:40:14;3.67;;;3.37;;
5965;SDS011;3009;43.224;27.976;2023-11-21T05:42:44;6.23;;;3.60;;
5965;SDS011;3009;43.224;27.976;2023-11-21T05:45:12;3.30;;;3.00;;
5965;SDS011;3009;43.224;27.976;2023-11-21T05:47:42;3.53;;;3.33;;
5965;SDS011;3009;43.224;27.976;2023-11-21T05:50:14;3.23;;;2.97;;
5965;SDS011;3009;43.224;27.976;2023-11-21T05:52:45;3.50;;;3.10;;
5965;SDS011;3009;43.224;27.976;2023-11-21T05:55:15;3.87;;;3.50;;
5965;SDS011;3009;43.224;27.976;2023-11-21T05:57:44;2.90;;;2.80;;
5965;SDS011;3009;43.224;27.976;2023-11-21T06:00:12;3.53;;;3.07;;
5965;SDS011;3009;43.224;27.976;2023-11-21T06:02:47;10.73;;;3.60;;
5965;SDS011;3009;43.224;27.976;2023-11-21T06:05:19;5.50;;;3.13;;
5965;SDS011;3009;43.224;27.976;2023-11-21T06:07:53;6.57;;;2.83;;
5965;SDS011;3009;43.224;27.976;2023-11-21T06:10:23;4.70;;;3.37;;
5965;SDS011;3009;43.224;27.976;2023-11-21T06:12:52;3.13;;;2.90;;
5965;SDS011;3009;43.224;27.976;2023-11-21T06:15:20;3.70;;;3.40;;
5965;SDS011;3009;43.224;27.976;2023-11-21T06:17:50;4.93;;;3.10;;
5965;SDS011;3009;43.224;27.976;2023-11-21T06:20:21;3.37;;;3.07;;
5965;SDS011;3009;43.224;27.976;2023-11-21T06:22:50;4.80;;;3.47;;
5965;SDS011;3009;43.224;27.976;2023-11-21T06:25:20;5.07;;;3.07;;
5965;SDS011;3009;43.224;27.976;2023-11-21T06:27:49;4.70;;;3.60;;
5965;SDS011;3009;43.224;27.976;2023-11-21T06:30:20;6.87;;;4.23;;
5965;SDS011;3009;43.224;27.976;2023-11-21T06:32:50;5.17;;;4.70;;
5965;SDS011;3009;43.224;27.976;2023-11-21T06:35:19;5.23;;;4.73;;
5965;SDS011;3009;43.224;27.976;2023-11-21T06:37:47;11.00;;;4.40;;
5965;SDS011;3009;43.224;27.976;2023-11-21T06:40:17;11.80;;;5.27;;
5965;SDS011;3009;43.224;27.976;2023-11-21T06:42:48;6.80;;;4.53;;
5965;SDS011;3009;43.224;27.976;2023-11-21T06:45:18;8.80;;;5.53;;
5965;SDS011;3009;43.224;27.976;2023-11-21T06:47:48;8.80;;;5.80;;
5965;SDS011;3009;43.224;27.976;2023-11-21T06:50:17;7.50;;;5.50;;
5965;SDS011;3009;43.224;27.976;2023-11-21T06:52:45;9.77;;;6.13;;
5965;SDS011;3009;43.224;27.976;2023-11-21T06:55:14;7.40;;;5.40;;
5965;SDS011;3009;43.224;27.976;2023-11-21T06:57:43;10.20;;;6.57;;
5965;SDS011;3009;43.224;27.976;2023-11-21T07:00:13;9.37;;;7.50;;
5965;SDS011;3009;43.224;27.976;2023-11-21T07:02:45;9.10;;;5.80;;
5965;SDS011;3009;43.224;27.976;2023-11-21T07:05:14;9.70;;;6.43;;
5965;SDS011;3009;43.224;27.976;2023-11-21T07:07:47;17.43;;;6.73;;
5965;SDS011;3009;43.224;27.976;2023-11-21T07:10:16;9.87;;;5.80;;
5965;SDS011;3009;43.224;27.976;2023-11-21T07:12:44;13.67;;;6.23;;
5965;SDS011;3009;43.224;27.976;2023-11-21T07:15:15;6.90;;;4.60;;
5965;SDS011;3009;43.224;27.976;2023-11-21T07:17:43;5.33;;;4.80;;
5965;SDS011;3009;43.224;27.976;2023-11-21T07:20:13;4.60;;;4.17;;
5965;SDS011;3009;43.224;27.976;2023-11-21T07:22:43;5.00;;;4.20;;
5965;SDS011;3009;43.224;27.976;2023-11-21T07:25:12;8.63;;;4.77;;
5965;SDS011;3009;43.224;27.976;2023-11-21T07:27:40;13.37;;;5.47;;
5965;SDS011;3009;43.224;27.976;2023-11-21T07:30:09;9.47;;;5.77;;
5965;SDS011;3009;43.224;27.976;2023-11-21T07:32:41;6.67;;;5.10;;
5965;SDS011;3009;43.224;27.976;2023-11-21T07:35:09;9.07;;;5.53;;
5965;SDS011;3009;43.224;27.976;2023-11-21T07:37:38;7.90;;;4.07;;
5965;SDS011;3009;43.224;27.976;2023-11-21T07:40:07;4.80;;;4.30;;
5965;SDS011;3009;43.224;27.976;2023-11-21T07:42:38;5.20;;;4.70;;
5965;SDS011;3009;43.224;27.976;2023-11-21T07:45:06;7.23;;;3.93;;
5965;SDS011;3009;43.224;27.976;2023-11-21T07:47:36;3.80;;;3.60;;
5965;SDS011;3009;43.224;27.976;2023-11-21T07:50:08;5.60;;;4.10;;
5965;SDS011;3009;43.224;27.976;2023-11-21T07:52:37;9.83;;;4.07;;
5965;SDS011;3009;43.224;27.976;2023-11-21T07:55:06;13.90;;;4.50;;
5965;SDS011;3009;43.224;27.976;2023-11-21T07:57:35;3.93;;;3.70;;
5965;SDS011;3009;43.224;27.976;2023-11-21T08:00:04;4.20;;;3.60;;
5965;SDS011;3009;43.224;27.976;2023-11-21T08:02:36;8.73;;;3.60;;
5965;SDS011;3009;43.224;27.976;2023-11-21T08:05:04;3.93;;;3.63;;
5965;SDS011;3009;43.224;27.976;2023-11-21T08:07:42;18.50;;;5.23;;
5965;SDS011;3009;43.224;27.976;2023-11-21T08:10:10;10.77;;;4.40;;
5965;SDS011;3009;43.224;27.976;2023-11-21T08:12:39;4.37;;;4.07;;
5965;SDS011;3009;43.224;27.976;2023-11-21T08:15:09;14.57;;;5.40;;
5965;SDS011;3009;43.224;27.976;2023-11-21T08:17:37;7.60;;;4.97;;
5965;SDS011;3009;43.224;27.976;2023-11-21T08:20:06;5.60;;;5.10;;
5965;SDS011;3009;43.224;27.976;2023-11-21T08:22:37;7.00;;;4.77;;
5965;SDS011;3009;43.224;27.976;2023-11-21T08:25:09;7.67;;;5.20;;
5965;SDS011;3009;43.224;27.976;2023-11-21T08:27:37;6.60;;;5.77;;
5965;SDS011;3009;43.224;27.976;2023-11-21T08:30:06;6.13;;;5.20;;
5965;SDS011;3009;43.224;27.976;2023-11-21T08:32:35;23.00;;;6.17;;
5965;SDS011;3009;43.224;27.976;2023-11-21T08:35:04;7.80;;;5.80;;
5965;SDS011;3009;43.224;27.976;2023-11-21T08:37:33;6.83;;;5.80;;
5965;SDS011;3009;43.224;27.976;2023-11-21T08:40:04;13.60;;;6.33;;
5965;SDS011;3009;43.224;27.976;2023-11-21T08:42:37;7.87;;;6.33;;
5965;SDS011;3009;43.224;27.976;2023-11-21T08:45:06;130.27;;;17.30;;
5965;SDS011;3009;43.224;27.976;2023-11-21T08:47:35;68.93;;;13.80;;
5965;SDS011;3009;43.224;27.976;2023-11-21T08:50:04;70.67;;;12.37;;
5965;SDS011;3009;43.224;27.976;2023-11-21T08:52:34;48.70;;;12.67;;
5965;SDS011;3009;43.224;27.976;2023-11-21T08:55:04;33.87;;;9.93;;
5965;SDS011;3009;43.224;27.976;2023-11-21T08:57:34;16.90;;;8.37;;
5965;SDS011;3009;43.224;27.976;2023-11-21T09:00:06;11.93;;;7.23;;
5965;SDS011;3009;43.224;27.976;2023-11-21T09:02:38;10.07;;;5.50;;
5965;SDS011;3009;43.224;27.976;2023-11-21T09:05:08;6.30;;;4.90;;
5965;SDS011;3009;43.224;27.976;2023-11-21T09:07:38;11.87;;;4.80;;
5965;SDS011;3009;43.224;27.976;2023-11-21T09:10:08;8.23;;;4.70;;
5965;SDS011;3009;43.224;27.976;2023-11-21T09:12:37;6.00;;;5.03;;
5965;SDS011;3009;43.224;27.976;2023-11-21T09:15:07;11.57;;;4.50;;
5965;SDS011;3009;43.224;27.976;2023-11-21T09:17:38;5.63;;;4.70;;
5965;SDS011;3009;43.224;27.976;2023-11-21T09:20:07;10.30;;;4.13;;
5965;SDS011;3009;43.224;27.976;2023-11-21T09:22:37;7.70;;;5.03;;
5965;SDS011;3009;43.224;27.976;2023-11-21T09:25:06;7.20;;;4.10;;
5965;SDS011;3009;43.224;27.976;2023-11-21T09:27:36;8.33;;;4.13;;
5965;SDS011;3009;43.224;27.976;2023-11-21T09:30:05;4.57;;;4.13;;
5965;SDS011;3009;43.224;27.976;2023-11-21T09:32:37;4.10;;;3.80;;
5965;SDS011;3009;43.224;27.976;2023-11-21T09:35:08;6.33;;;3.97;;
5965;SDS011;3009;43.224;27.976;2023-11-21T09:37:38;16.30;;;5.37;;
5965;SDS011;3009;43.224;27.976;2023-11-21T09:40:07;4.70;;;4.30;;
5965;SDS011;3009;43.224;27.976;2023-11-21T09:42:43;10.00;;;5.80;;
5965;SDS011;3009;43.224;27.976;2023-11-21T09:45:24;8.50;;;4.33;;
5965;SDS011;3009;43.224;27.976;2023-11-21T09:47:53;6.83;;;4.23;;
5965;SDS011;3009;43.224;27.976;2023-11-21T09:50:23;6.30;;;4.20;;
5965;SDS011;3009;43.224;27.976;2023-11-21T09:52:57;13.97;;;4.07;;
5965;SDS011;3009;43.224;27.976;2023-11-21T09:55:34;4.43;;;4.13;;
5965;SDS011;3009;43.224;27.976;2023-11-21T09:58:03;9.20;;;4.40;;
5965;SDS011;3009;43.224;27.976;2023-11-21T10:00:36;20.37;;;7.20;;
5965;SDS011;3009;43.224;27.976;2023-11-21T10:03:05;6.97;;;5.00;;
5965;SDS011;3009;43.224;27.976;2023-11-21T10:05:33;11.07;;;4.33;;
5965;SDS011;3009;43.224;27.976;2023-11-21T10:08:02;5.77;;;4.13;;
5965;SDS011;3009;43.224;27.976;2023-11-21T10:10:34;19.63;;;4.23;;
5965;SDS011;3009;43.224;27.976;2023-11-21T10:13:04;6.00;;;4.07;;
5965;SDS011;3009;43.224;27.976;2023-11-21T10:15:35;4.43;;;3.47;;
5965;SDS011;3009;43.224;27.976;2023-11-21T10:18:05;4.83;;;4.23;;
5965;SDS011;3009;43.224;27.976;2023-11-21T10:20:36;7.03;;;4.43;;
5965;SDS011;3009;43.224;27.976;2023-11-21T10:23:05;6.30;;;4.40;;
5965;SDS011;3009;43.224;27.976;2023-11-21T10:25:34;4.83;;;4.33;;
5965;SDS011;3009;43.224;27.976;2023-11-21T10:28:03;9.10;;;4.70;;
5965;SDS011;3009;43.224;27.976;2023-11-21T10:30:33;12.63;;;4.87;;
5965;SDS011;3009;43.224;27.976;2023-11-21T10:33:05;6.67;;;4.43;;
5965;SDS011;3009;43.224;27.976;2023-11-21T10:35:44;6.20;;;4.57;;
5965;SDS011;3009;43.224;27.976;2023-11-21T10:38:17;9.67;;;5.03;;
5965;SDS011;3009;43.224;27.976;2023-11-21T10:40:47;6.00;;;4.50;;
5965;SDS011;3009;43.224;27.976;2023-11-21T10:43:16;7.20;;;4.67;;
5965;SDS011;3009;43.224;27.976;2023-11-21T10:45:47;8.13;;;5.13;;
5965;SDS011;3009;43.224;27.976;2023-11-21T10:48:15;15.40;;;4.83;;
5965;SDS011;3009;43.224;27.976;2023-11-21T10:50:45;4.73;;;4.20;;
5965;SDS011;3009;43.224;27.976;2023-11-21T10:53:15;3.93;;;3.60;;
5965;SDS011;3009;43.224;27.976;2023-11-21T10:55:44;8.23;;;3.90;;
5965;SDS011;3009;43.224;27.976;2023-11-21T10:58:13;12.73;;;3.60;;
5965;SDS011;3009;43.224;27.976;2023-11-21T11:00:42;4.07;;;3.67;;
5965;SDS011;3009;43.224;27.976;2023-11-21T11:03:14;4.80;;;3.50;;
5965;SDS011;3009;43.224;27.976;2023-11-21T11:05:44;5.80;;;3.37;;
5965;SDS011;3009;43.224;27.976;2023-11-21T11:08:20;3.87;;;3.57;;
5965;SDS011;3009;43.224;27.976;2023-11-21T11:10:54;3.90;;;3.60;;
5965;SDS011;3009;43.224;27.976;2023-11-21T11:13:23;4.93;;;4.47;;
5965;SDS011;3009;43.224;27.976;2023-11-21T11:15:54;5.60;;;3.97;;
5965;SDS011;3009;43.224;27.976;2023-11-21T11:18:29;8.30;;;7.13;;
5965;SDS011;3009;43.224;27.976;2023-11-21T11:21:00;10.33;;;6.90;;
5965;SDS011;3009;43.224;27.976;2023-11-21T11:23:39;10.40;;;7.80;;
5965;SDS011;3009;43.224;27.976;2023-11-21T11:26:20;11.50;;;7.37;;
5965;SDS011;3009;43.224;27.976;2023-11-21T11:29:04;10.87;;;7.00;;
5965;SDS011;3009;43.224;27.976;2023-11-21T11:31:48;12.73;;;6.87;;
5965;SDS011;3009;43.224;27.976;2023-11-21T11:34:26;21.50;;;7.13;;
5965;SDS011;3009;43.224;27.976;2023-11-21T11:37:00;8.97;;;6.67;;
5965;SDS011;3009;43.224;27.976;2023-11-21T11:39:30;10.50;;;7.20;;
5965;SDS011;3009;43.224;27.976;2023-11-21T11:42:03;18.50;;;7.40;;
5965;SDS011;3009;43.224;27.976;2023-11-21T11:44:46;12.70;;;7.20;;
5965;SDS011;3009;43.224;27.976;2023-11-21T11:47:20;8.80;;;6.47;;
5965;SDS011;3009;43.224;27.976;2023-11-21T11:50:00;8.53;;;6.13;;
5965;SDS011;3009;43.224;27.976;2023-11-21T11:52:40;8.20;;;6.60;;
5965;SDS011;3009;43.224;27.976;2023-11-21T11:55:10;11.37;;;7.80;;
5965;SDS011;3009;43.224;27.976;2023-11-21T11:57:40;21.13;;;6.00;;
5965;SDS011;3009;43.224;27.976;2023-11-21T12:00:13;13.60;;;5.60;;
5965;SDS011;3009;43.224;27.976;2023-11-21T12:02:47;14.50;;;6.80;;
5965;SDS011;3009;43.224;27.976;2023-11-21T12:05:20;18.10;;;6.10;;
5965;SDS011;3009;43.224;27.976;2023-11-21T12:07:51;11.40;;;7.30;;
5965;SDS011;3009;43.224;27.976;2023-11-21T12:10:21;9.33;;;6.50;;
5965;SDS011;3009;43.224;27.976;2023-11-21T12:12:52;8.47;;;6.87;;
5965;SDS011;3009;43.224;27.976;2023-11-21T12:15:23;9.27;;;5.63;;
5965;SDS011;3009;43.224;27.976;2023-11-21T12:17:52;6.30;;;5.10;;
5965;SDS011;3009;43.224;27.976;2023-11-21T12:20:22;5.63;;;5.03;;
5965;SDS011;3009;43.224;27.976;2023-11-21T12:22:52;6.07;;;5.17;;
5965;SDS011;3009;43.224;27.976;2023-11-21T12:25:22;7.57;;;5.47;;
5965;SDS011;3009;43.224;27.976;2023-11-21T12:27:55;8.30;;;5.83;;
5965;SDS011;3009;43.224;27.976;2023-11-21T12:30:25;9.40;;;4.50;;
5965;SDS011;3009;43.224;27.976;2023-11-21T12:32:57;6.00;;;5.17;;
5965;SDS011;3009;43.224;27.976;2023-11-21T12:35:29;8.63;;;5.20;;
5965;SDS011;3009;43.224;27.976;2023-11-21T12:38:01;10.57;;;5.27;;
5965;SDS011;3009;43.224;27.976;2023-11-21T12:40:30;8.67;;;4.90;;
5965;SDS011;3009;43.224;27.976;2023-11-21T12:42:59;6.17;;;4.80;;
5965;SDS011;3009;43.224;27.976;2023-11-21T12:45:31;7.80;;;4.83;;
5965;SDS011;3009;43.224;27.976;2023-11-21T12:48:01;4.47;;;4.10;;
5965;SDS011;3009;43.224;27.976;2023-11-21T12:50:36;5.10;;;4.47;;
5965;SDS011;3009;43.224;27.976;2023-11-21T12:53:05;5.47;;;5.07;;
5965;SDS011;3009;43.224;27.976;2023-11-21T12:55:37;4.67;;;4.23;;
5965;SDS011;3009;43.224;27.976;2023-11-21T12:58:06;5.10;;;4.60;;
5965;SDS011;3009;43.224;27.976;2023-11-21T13:00:38;4.90;;;4.50;;
5965;SDS011;3009;43.224;27.976;2023-11-21T13:03:09;3.83;;;3.63;;
5965;SDS011;3009;43.224;27.976;2023-11-21T13:05:46;7.80;;;3.93;;
5965;SDS011;3009;43.224;27.976;2023-11-21T13:08:19;5.97;;;4.30;;
5965;SDS011;3009;43.224;27.976;2023-11-21T13:10:50;4.20;;;3.80;;
5965;SDS011;3009;43.224;27.976;2023-11-21T13:13:21;4.30;;;3.90;;
5965;SDS011;3009;43.224;27.976;2023-11-21T13:15:51;3.93;;;3.50;;
5965;SDS011;3009;43.224;27.976;2023-11-21T13:18:23;4.70;;;4.30;;
5965;SDS011;3009;43.224;27.976;2023-11-21T13:20:55;5.90;;;4.30;;
5965;SDS011;3009;43.224;27.976;2023-11-21T13:23:24;4.20;;;3.90;;
5965;SDS011;3009;43.224;27.976;2023-11-21T13:25:53;4.77;;;3.50;;
5965;SDS011;3009;43.224;27.976;2023-11-21T13:28:30;4.40;;;3.70;;
5965;SDS011;3009;43.224;27.976;2023-11-21T13:31:00;9.83;;;3.93;;
5965;SDS011;3009;43.224;27.976;2023-11-21T13:33:37;5.50;;;3.13;;
5965;SDS011;3009;43.224;27.976;2023-11-21T13:36:09;3.87;;;3.57;;
5965;SDS011;3009;43.224;27.976;2023-11-21T13:38:40;7.80;;;3.80;;
5965;SDS011;3009;43.224;27.976;2023-11-21T13:41:11;7.00;;;3.70;;
5965;SDS011;3009;43.224;27.976;2023-11-21T13:43:41;3.90;;;3.57;;
5965;SDS011;3009;43.224;27.976;2023-11-21T13:46:17;3.67;;;3.37;;
5965;SDS011;3009;43.224;27.976;2023-11-21T13:48:51;10.00;;;3.47;;
5965;SDS011;3009;43.224;27.976;2023-11-21T13:51:24;3.53;;;3.33;;
5965;SDS011;3009;43.224;27.976;2023-11-21T13:54:04;3.77;;;3.47;;
5965;SDS011;3009;43.224;27.976;2023-11-21T13:56:36;5.70;;;2.80;;
5965;SDS011;3009;43.224;27.976;2023-11-21T13:59:06;3.40;;;3.13;;
5965;SDS011;3009;43.224;27.976;2023-11-21T14:01:46;4.93;;;4.43;;
5965;SDS011;3009;43.224;27.976;2023-11-21T14:04:31;5.77;;;3.80;;
5965;SDS011;3009;43.224;27.976;2023-11-21T14:07:15;8.20;;;4.13;;
5965;SDS011;3009;43.224;27.976;2023-11-21T14:09:57;8.13;;;3.30;;
5965;SDS011;3009;43.224;27.976;2023-11-21T14:12:27;3.80;;;3.57;;
5965;SDS011;3009;43.224;27.976;2023-11-21T14:15:04;9.13;;;4.27;;
5965;SDS011;3009;43.224;27.976;2023-11-21T14:17:36;10.43;;;4.17;;
5965;SDS011;3009;43.224;27.976;2023-11-21T14:20:08;9.07;;;4.00;;
5965;SDS011;3009;43.224;27.976;2023-11-21T14:22:45;4.27;;;3.60;;
5965;SDS011;3009;43.224;27.976;2023-11-21T14:25:14;12.60;;;4.37;;
5965;SDS011;3009;43.224;27.976;2023-11-21T14:27:44;9.60;;;3.60;;
5965;SDS011;3009;43.224;27.976;2023-11-21T14:30:13;5.17;;;3.70;;
5965;SDS011;3009;43.224;27.976;2023-11-21T14:32:45;12.60;;;3.90;;
5965;SDS011;3009;43.224;27.976;2023-11-21T14:35:15;7.97;;;3.60;;
5965;SDS011;3009;43.224;27.976;2023-11-21T14:37:46;4.30;;;3.83;;
5965;SDS011;3009;43.224;27.976;2023-11-21T14:40:15;4.43;;;3.90;;
5965;SDS011;3009;43.224;27.976;2023-11-21T14:42:48;6.40;;;4.50;;
5965;SDS011;3009;43.224;27.976;2023-11-21T14:45:18;6.33;;;4.90;;
5965;SDS011;3009;43.224;27.976;2023-11-21T14:47:47;6.40;;;4.20;;
5965;SDS011;3009;43.224;27.976;2023-11-21T14:50:24;8.57;;;4.60;;
5965;SDS011;3009;43.224;27.976;2023-11-21T14:53:37;5.10;;;4.60;;
5965;SDS011;3009;43.224;27.976;2023-11-21T14:56:10;6.37;;;4.97;;
5965;SDS011;3009;43.224;27.976;2023-11-21T14:58:47;6.60;;;5.20;;
5965;SDS011;3009;43.224;27.976;2023-11-21T15:01:15;8.60;;;5.27;;
5965;SDS011;3009;43.224;27.976;2023-11-21T15:03:53;8.57;;;6.00;;
5965;SDS011;3009;43.224;27.976;2023-11-21T15:06:22;6.23;;;5.53;;
5965;SDS011;3009;43.224;27.976;2023-11-21T15:08:57;29.07;;;12.37;;
5965;SDS011;3009;43.224;27.976;2023-11-21T15:11:43;15.50;;;10.80;;
5965;SDS011;3009;43.224;27.976;2023-11-21T15:14:13;9.53;;;8.40;;
5965;SDS011;3009;43.224;27.976;2023-11-21T15:16:47;9.43;;;7.47;;
5965;SDS011;3009;43.224;27.976;2023-11-21T15:19:20;13.07;;;9.90;;